Terminal Aerodrome Forecast
Issued by NWS Upton, NY

Home | Current Version | Previous Version | Text Only | Print | Product List | Glossary On
Versions: 1 2 3 4 5 6 7 8 9 10 11 12 13 14 15 16 17 18 19 20 21 22 23 24 25 26 27 28 29 30 31 32 33 34 35 36 37 38 39 40
966
FTUS41 KOKX 282350
TAFEWR
TAF
KEWR 282350Z 2900/3006 23010KT P6SM SCT250
     FM290200 18004KT P6SM SCT250
     FM290600 16005KT P6SM OVC150
     FM290800 VRB04KT 4SM SHRA BR VCTS SCT015 BKN025CB
      TEMPO 2909/2913 2SM BR BKN015
     FM291300 27010KT P6SM FEW025 BKN100
     FM291600 27016G26KT P6SM FEW040 BKN250
     FM292300 31010KT P6SM FEW040 BKN250=

USA.gov is the U.S. government's official web portal to all federal, state and local government web resources and services.